createdAt,value
2019-06-20T00:00:28.628Z,99413.13
2019-06-20T00:03:18.113Z,99414.29
2019-06-20T00:06:06.623Z,99401.09
2019-06-20T00:08:55.353Z,99394.54
2019-06-20T00:11:44.308Z,99381.73
2019-06-20T00:14:33.035Z,99370.16
2019-06-20T00:17:22.590Z,99350.95
2019-06-20T00:20:12.450Z,99335.36
2019-06-20T00:23:01.204Z,99311.92
2019-06-20T00:25:49.943Z,99295.69
2019-06-20T00:28:38.603Z,99260.55
2019-06-20T00:31:27.259Z,99208.00
2019-06-20T00:34:15.957Z,99202.36
2019-06-20T00:37:04.634Z,99178.73
2019-06-20T00:39:54.643Z,99165.11
2019-06-20T00:42:44.323Z,99161.78
2019-06-20T00:45:34.046Z,99154.09
2019-06-20T00:48:23.365Z,99152.45
2019-06-20T00:51:12.720Z,99159.84
2019-06-20T00:54:01.981Z,99171.67
2019-06-20T00:56:51.471Z,99238.95
2019-06-20T00:59:40.723Z,99287.39
2019-06-20T01:02:29.456Z,99318.77
2019-06-20T01:05:18.942Z,99292.42
2019-06-20T01:08:07.863Z,99267.49
2019-06-20T01:10:57.331Z,99284.41
2019-06-20T01:13:46.246Z,99290.66
2019-06-20T01:16:36.067Z,99317.62
2019-06-20T01:19:24.912Z,99320.02
2019-06-20T01:22:14.878Z,99306.87
2019-06-20T01:25:04.431Z,99302.66
2019-06-20T01:27:53.346Z,99293.48
2019-06-20T01:30:43.057Z,99294.79
2019-06-20T01:33:32.597Z,99282.64
2019-06-20T01:36:21.471Z,99289.87
2019-06-20T01:39:10.656Z,99282.98
2019-06-20T01:42:00.058Z,99284.13
2019-06-20T01:44:49.767Z,99300.39
2019-06-20T01:47:39.029Z,99312.20
2019-06-20T01:50:28.584Z,99307.63
2019-06-20T01:53:18.247Z,99299.30
2019-06-20T01:56:08.158Z,99305.33
2019-06-20T01:58:57.817Z,99308.43
2019-06-20T02:01:46.889Z,99303.31
2019-06-20T02:04:36.556Z,99305.45
2019-06-20T02:07:28.277Z,99311.87
2019-06-20T02:10:16.369Z,99319.08
2019-06-20T02:13:05.929Z,99321.53
2019-06-20T02:15:55.929Z,99316.44
2019-06-20T02:18:46.170Z,99316.44
2019-06-20T02:21:34.735Z,99325.02
2019-06-20T02:24:23.357Z,99323.70
2019-06-20T02:27:12.909Z,99325.00
2019-06-20T02:30:02.426Z,99327.48
2019-06-20T02:32:51.632Z,99333.88
2019-06-20T02:35:41.017Z,99338.80
2019-06-20T02:38:30.052Z,99341.78
2019-06-20T02:41:18.435Z,99346.95
2019-06-20T02:44:24.748Z,99343.55
2019-06-20T02:46:58.655Z,99338.50
2019-06-20T02:49:48.054Z,99347.02
2019-06-20T02:52:36.914Z,99355.08
2019-06-20T02:55:25.663Z,99358.83
2019-06-20T02:58:15.018Z,99356.84
2019-06-20T03:01:04.723Z,99362.44
2019-06-20T03:03:54.648Z,99362.28
2019-06-20T03:06:44.408Z,99372.94
2019-06-20T03:09:33.757Z,99369.67
2019-06-20T03:12:23.085Z,99379.48
2019-06-20T03:15:11.731Z,99380.75
2019-06-20T03:18:00.844Z,99378.77
2019-06-20T03:20:49.662Z,99378.97
2019-06-20T03:23:38.234Z,99381.45
2019-06-20T03:26:27.904Z,99390.30
2019-06-20T03:29:17.081Z,99396.24
2019-06-20T03:32:06.426Z,99401.09
2019-06-20T03:34:55.531Z,99412.88
2019-06-20T03:37:44.261Z,99413.27
2019-06-20T03:40:33.637Z,99416.23
2019-06-20T03:43:23.842Z,99418.17
2019-06-20T03:46:12.992Z,99415.02
2019-06-20T03:49:03.580Z,99416.86
2019-06-20T03:51:52.836Z,99415.82
2019-06-20T03:54:42.290Z,99420.06
2019-06-20T03:57:31.189Z,99417.37
2019-06-20T04:00:22.365Z,99411.40
2019-06-20T04:03:11.851Z,99410.36
2019-06-20T04:06:01.239Z,99404.63
2019-06-20T04:08:50.730Z,99413.36
2019-06-20T04:11:40.399Z,99408.44
2019-06-20T04:14:30.063Z,99415.78
2019-06-20T04:17:18.825Z,99412.85
2019-06-20T04:20:08.030Z,99414.56
2019-06-20T04:22:57.433Z,99414.86
2019-06-20T04:25:46.279Z,99404.47
2019-06-20T04:28:36.116Z,99404.30
2019-06-20T04:31:25.321Z,99411.34
2019-06-20T04:34:15.370Z,99412.00
2019-06-20T04:37:04.536Z,99409.88
2019-06-20T04:39:53.702Z,99418.50
2019-06-20T04:42:42.974Z,99410.95
2019-06-20T04:45:41.565Z,99414.94
2019-06-20T04:48:30.918Z,99417.67
2019-06-20T04:51:39.202Z,99423.77
2019-06-20T04:57:31.566Z,99424.09
2019-06-20T05:03:02.247Z,99428.01
2019-06-20T05:06:00.275Z,99422.36
2019-06-20T05:08:50.418Z,99431.90
2019-06-20T05:11:46.118Z,99433.14
2019-06-20T05:14:34.785Z,99432.37
2019-06-20T05:17:23.586Z,99431.59
2019-06-20T05:20:13.403Z,99432.39
2019-06-20T05:23:03.022Z,99426.58
2019-06-20T05:25:52.262Z,99426.39
2019-06-20T05:28:41.008Z,99428.83
2019-06-20T05:31:30.366Z,99430.97
2019-06-20T05:34:19.396Z,99430.25
2019-06-20T05:37:08.487Z,99432.45
2019-06-20T05:39:56.874Z,99434.14
2019-06-20T05:42:46.696Z,99438.23
2019-06-20T05:45:36.975Z,99436.91
2019-06-20T05:48:27.711Z,99442.02
2019-06-20T05:51:39.745Z,99439.83
2019-06-20T05:54:34.702Z,99433.19
2019-06-20T06:00:39.510Z,99437.94
2019-06-20T06:03:29.667Z,99445.28
2019-06-20T06:06:19.138Z,99437.09
2019-06-20T06:09:07.878Z,99441.91
2019-06-20T06:11:57.672Z,99438.74
2019-06-20T06:14:47.387Z,99437.69
2019-06-20T06:17:36.150Z,99434.92
2019-06-20T06:20:25.216Z,99431.27
2019-06-20T06:23:14.651Z,99436.14
2019-06-20T06:26:03.868Z,99432.41
2019-06-20T06:28:54.101Z,99435.25
2019-06-20T06:31:43.446Z,99436.31
2019-06-20T06:34:33.130Z,99437.31
2019-06-20T06:37:21.725Z,99440.05
2019-06-20T06:40:11.914Z,99436.39
2019-06-20T06:43:01.480Z,99443.22
2019-06-20T06:45:50.215Z,99440.49
2019-06-20T06:48:39.919Z,99454.50
2019-06-20T06:51:29.329Z,99443.25
2019-06-20T06:54:18.490Z,99456.83
2019-06-20T06:57:06.877Z,99456.56
2019-06-20T06:59:55.490Z,99459.31
2019-06-20T07:02:45.065Z,99456.79
2019-06-20T07:05:35.579Z,99455.77
2019-06-20T07:08:25.134Z,99450.67
2019-06-20T07:11:14.520Z,99452.64
2019-06-20T07:14:02.869Z,99455.03
2019-06-20T07:17:00.376Z,99453.94
2019-06-20T07:19:43.533Z,99459.22
2019-06-20T07:22:33.336Z,99455.70
2019-06-20T07:25:22.634Z,99456.73
2019-06-20T07:28:11.599Z,99459.59
2019-06-20T07:31:01.009Z,99463.27
2019-06-20T07:33:50.110Z,99457.20
2019-06-20T07:36:39.674Z,99461.46
2019-06-20T07:39:29.385Z,99458.09
2019-06-20T07:42:18.406Z,99457.42
2019-06-20T07:45:09.299Z,99460.78
2019-06-20T07:47:58.395Z,99455.70
2019-06-20T07:50:47.816Z,99455.31
2019-06-20T07:53:37.009Z,99446.47
2019-06-20T07:56:26.107Z,99444.55
2019-06-20T07:59:15.457Z,99454.83
2019-06-20T08:02:04.944Z,99459.02
2019-06-20T08:04:55.750Z,99466.11
2019-06-20T08:07:44.410Z,99462.94
2019-06-20T08:10:33.009Z,99460.89
2019-06-20T08:13:22.722Z,99461.30
2019-06-20T08:16:11.678Z,99459.61
2019-06-20T08:19:01.240Z,99457.63
2019-06-20T08:21:50.593Z,99457.30
2019-06-20T08:24:40.199Z,99453.00
2019-06-20T08:28:07.804Z,99456.11
2019-06-20T08:30:58.960Z,99451.60
2019-06-20T08:34:09.743Z,99451.84
2019-06-20T08:43:37.003Z,99442.16
2019-06-20T08:46:32.700Z,99446.30
2019-06-20T08:49:21.393Z,99447.23
2019-06-20T08:52:11.106Z,99445.77
2019-06-20T08:55:01.074Z,99451.70
2019-06-20T08:57:50.518Z,99446.02
2019-06-20T09:00:39.798Z,99448.12
2019-06-20T09:03:31.069Z,99445.38
2019-06-20T09:06:20.049Z,99438.69
2019-06-20T09:09:09.645Z,99440.62
2019-06-20T09:12:00.298Z,99435.84
2019-06-20T09:14:50.764Z,99443.29
2019-06-20T09:17:40.377Z,99440.48
2019-06-20T09:20:29.889Z,99445.56
2019-06-20T09:23:19.123Z,99432.00
2019-06-20T09:26:08.722Z,99441.02
2019-06-20T09:28:59.343Z,99439.48
2019-06-20T09:31:48.915Z,99451.23
2019-06-20T09:34:38.064Z,99444.41
2019-06-20T09:37:27.237Z,99453.03
2019-06-20T09:47:22.460Z,99453.77
2019-06-20T09:56:37.220Z,99454.25
2019-06-20T09:59:32.794Z,99441.30
2019-06-20T10:05:47.289Z,99456.80
2019-06-20T10:15:01.162Z,99455.73
2019-06-20T10:17:51.574Z,99453.52
2019-06-20T10:20:40.719Z,99455.52
2019-06-20T10:23:30.163Z,99452.09
2019-06-20T10:26:18.527Z,99456.48
2019-06-20T10:29:06.859Z,99452.37
2019-06-20T10:31:55.505Z,99454.78
2019-06-20T10:34:45.656Z,99456.03
2019-06-20T10:37:35.435Z,99468.58
2019-06-20T10:40:25.300Z,99486.77
2019-06-20T10:43:14.507Z,99490.37
2019-06-20T10:46:03.850Z,99483.16
2019-06-20T10:48:52.935Z,99499.30
2019-06-20T10:55:00.798Z,99505.17
2019-06-20T10:57:51.938Z,99514.72
2019-06-20T11:00:52.278Z,99521.10
2019-06-20T11:04:01.863Z,99519.28
2019-06-20T11:07:10.096Z,99511.47
2019-06-20T11:13:34.829Z,99503.91
2019-06-20T11:16:23.710Z,99503.02
2019-06-20T11:19:12.606Z,99512.70
2019-06-20T11:22:02.356Z,99508.76
2019-06-20T11:24:51.740Z,99514.88
2019-06-20T11:27:40.572Z,99507.11
2019-06-20T11:30:44.830Z,99508.98
2019-06-20T11:33:05.134Z,99513.40
2019-06-20T11:35:37.725Z,99513.09
2019-06-20T11:38:08.614Z,99510.50
2019-06-20T11:40:43.821Z,99511.01
2019-06-20T11:43:15.655Z,99498.68
2019-06-20T11:45:47.226Z,99495.91
2019-06-20T11:48:18.132Z,99495.59
2019-06-20T11:50:49.136Z,99485.42
2019-06-20T11:53:21.100Z,99479.64
2019-06-20T11:55:52.355Z,99482.22
2019-06-20T11:58:23.631Z,99483.78
2019-06-20T12:01:03.598Z,99476.64
2019-06-20T12:03:27.255Z,99478.23
2019-06-20T12:05:59.426Z,99469.38
2019-06-20T12:08:30.670Z,99450.05
2019-06-20T12:11:01.960Z,99446.58
2019-06-20T12:13:33.203Z,99444.59
2019-06-20T12:16:03.976Z,99437.28
2019-06-20T12:18:34.774Z,99444.86
2019-06-20T12:21:05.493Z,99440.77
2019-06-20T12:23:36.490Z,99442.11
2019-06-20T12:26:08.969Z,99439.45
2019-06-20T12:28:40.738Z,99443.55
2019-06-20T12:31:19.333Z,99435.55
2019-06-20T12:33:45.185Z,99430.52
2019-06-20T12:36:16.455Z,99434.53
2019-06-20T12:38:48.380Z,99445.75
2019-06-20T12:41:20.340Z,99448.24
2019-06-20T12:43:51.322Z,99447.83
2019-06-20T12:46:22.043Z,99440.73
2019-06-20T12:48:53.589Z,99450.31
2019-06-20T12:51:24.315Z,99458.78
2019-06-20T12:53:55.299Z,99462.92
2019-06-20T12:56:26.196Z,99463.14
2019-06-20T12:58:57.184Z,99461.27
2019-06-20T13:01:36.875Z,99471.27
2019-06-20T13:04:00.866Z,99466.52
2019-06-20T13:06:31.900Z,99441.08
2019-06-20T13:09:03.087Z,99439.09
2019-06-20T13:11:35.303Z,99447.95
2019-06-20T13:14:06.124Z,99447.09
2019-06-20T13:16:38.919Z,99444.48
2019-06-20T13:19:09.734Z,99442.80
2019-06-20T13:21:40.637Z,99445.64
2019-06-20T13:24:11.989Z,99434.98
2019-06-20T13:26:43.898Z,99436.97
2019-06-20T13:29:14.727Z,99436.05
2019-06-20T13:31:58.443Z,99450.42
2019-06-20T13:34:18.085Z,99451.08
2019-06-20T13:36:49.102Z,99454.53
2019-06-20T13:39:20.324Z,99425.17
2019-06-20T13:41:51.554Z,99408.77
2019-06-20T13:44:22.381Z,99408.64
2019-06-20T13:46:53.367Z,99409.91
2019-06-20T13:49:24.377Z,99416.95
2019-06-20T13:51:55.722Z,99411.84
2019-06-20T13:54:26.452Z,99410.49
2019-06-20T13:56:57.651Z,99405.55
2019-06-20T13:59:28.613Z,99409.47
2019-06-20T14:02:06.598Z,99403.08
2019-06-20T14:04:33.010Z,99405.55
2019-06-20T14:07:03.955Z,99398.70
2019-06-20T14:09:34.689Z,99403.88
2019-06-20T14:12:07.142Z,99401.45
2019-06-20T14:14:38.063Z,99403.35
2019-06-20T14:17:09.050Z,99404.59
2019-06-20T14:19:40.036Z,99400.71
2019-06-20T14:22:11.000Z,99407.27
2019-06-20T14:24:43.435Z,99405.11
2019-06-20T14:27:14.515Z,99403.79
2019-06-20T14:29:46.534Z,99403.18
2019-06-20T14:32:22.217Z,99412.64
2019-06-20T14:34:52.019Z,99414.33
2019-06-20T14:37:22.823Z,99411.95
2019-06-20T14:39:54.934Z,99416.26
2019-06-20T14:42:25.722Z,99421.54
2019-06-20T14:44:56.458Z,99413.44
2019-06-20T14:47:27.992Z,99420.50
2019-06-20T14:49:58.731Z,99421.81
2019-06-20T14:52:29.458Z,99435.95
2019-06-20T14:55:00.278Z,99452.28
2019-06-20T14:57:52.095Z,99440.42
2019-06-20T15:00:52.158Z,99437.87
2019-06-20T15:06:50.586Z,99423.43
2019-06-20T15:15:58.489Z,99416.92
2019-06-20T15:18:29.543Z,99426.23
2019-06-20T15:21:00.676Z,99425.42
2019-06-20T15:23:31.869Z,99419.41
2019-06-20T15:26:02.656Z,99420.53
2019-06-20T15:28:33.821Z,99416.03
2019-06-20T15:31:04.547Z,99413.67
2019-06-20T15:33:35.536Z,99415.84
2019-06-20T15:36:06.338Z,99421.13
2019-06-20T15:38:37.169Z,99419.17
2019-06-20T15:41:08.187Z,99424.45
2019-06-20T15:43:39.165Z,99430.73
2019-06-20T15:46:10.118Z,99422.47
2019-06-20T15:48:41.073Z,99437.63
2019-06-20T15:51:11.809Z,99436.66
2019-06-20T15:53:43.005Z,99442.14
2019-06-20T15:56:13.852Z,99435.68
2019-06-20T15:58:46.069Z,99430.55
2019-06-20T16:01:17.112Z,99442.88
2019-06-20T16:03:48.075Z,99434.02
2019-06-20T16:06:18.836Z,99438.06
2019-06-20T16:08:49.930Z,99439.17
2019-06-20T16:11:20.640Z,99431.00
2019-06-20T16:13:51.384Z,99427.95
2019-06-20T16:16:22.384Z,99425.84
2019-06-20T16:18:53.600Z,99421.66
2019-06-20T16:21:24.396Z,99418.55
2019-06-20T16:23:55.712Z,99422.84
2019-06-20T16:26:26.668Z,99419.38
2019-06-20T16:28:57.637Z,99412.98
2019-06-20T16:31:28.449Z,99416.09
2019-06-20T16:33:59.426Z,99420.05
2019-06-20T16:36:30.396Z,99420.57
2019-06-20T16:48:00.145Z,99419.91
2019-06-20T16:50:38.492Z,99425.09
2019-06-20T16:55:52.421Z,99427.67
2019-06-20T16:58:43.379Z,99432.53
2019-06-20T17:01:14.246Z,99421.81
2019-06-20T17:04:21.840Z,99426.56
2019-06-20T17:06:52.686Z,99422.46
2019-06-20T17:10:28.388Z,99431.22
2019-06-20T17:13:18.531Z,99433.00
2019-06-20T17:16:01.769Z,99432.35
2019-06-20T17:18:33.164Z,99431.92
2019-06-20T17:21:03.925Z,99434.86
2019-06-20T17:23:34.893Z,99438.99
2019-06-20T17:26:07.239Z,99439.94
2019-06-20T17:28:37.962Z,99444.23
2019-06-20T17:31:08.683Z,99449.17
2019-06-20T17:33:39.647Z,99454.39
2019-06-20T17:39:44.381Z,99458.45
2019-06-20T17:44:57.464Z,99458.59
2019-06-20T17:47:52.771Z,99450.09
2019-06-20T17:50:42.738Z,99458.38
2019-06-20T17:53:33.197Z,99457.73
2019-06-20T17:56:04.272Z,99458.20
2019-06-20T17:58:55.951Z,99466.56
2019-06-20T18:04:13.846Z,99530.08
2019-06-20T18:07:06.968Z,99548.61
2019-06-20T18:09:58.952Z,99520.78
2019-06-20T18:12:29.943Z,99494.14
2019-06-20T18:15:00.787Z,99491.75
2019-06-20T18:17:31.521Z,99492.33
2019-06-20T18:20:02.328Z,99492.29
2019-06-20T18:22:33.329Z,99495.63
2019-06-20T18:25:05.635Z,99495.42
2019-06-20T18:27:36.435Z,99496.13
2019-06-20T18:30:07.607Z,99496.13
2019-06-20T18:32:39.079Z,99493.23
2019-06-20T18:35:10.410Z,99493.98
2019-06-20T18:37:41.219Z,99499.38
2019-06-20T18:40:12.082Z,99510.31
2019-06-20T18:42:43.272Z,99513.06
2019-06-20T18:45:14.343Z,99517.86
2019-06-20T18:47:45.083Z,99522.41
2019-06-20T18:50:16.218Z,99532.75
2019-06-20T18:52:52.310Z,99540.89
2019-06-20T18:55:20.033Z,99550.12
2019-06-20T18:57:50.834Z,99552.80
2019-06-20T19:00:34.315Z,99560.39
2019-06-20T19:02:54.674Z,99561.43
2019-06-20T19:05:25.493Z,99570.70
2019-06-20T19:07:56.294Z,99570.41
2019-06-20T19:10:27.888Z,99565.65
2019-06-20T19:13:00.657Z,99577.23
2019-06-20T19:15:31.726Z,99578.18
2019-06-20T19:18:03.742Z,99583.13
2019-06-20T19:20:34.553Z,99579.52
2019-06-20T19:23:05.582Z,99589.78
2019-06-20T19:25:37.002Z,99592.92
2019-06-20T19:28:07.827Z,99595.56
2019-06-20T19:30:46.759Z,99610.69
2019-06-20T19:33:17.807Z,99614.02
2019-06-20T19:35:48.636Z,99611.59
2019-06-20T19:38:19.680Z,99624.62
2019-06-20T19:40:50.941Z,99630.24
2019-06-20T19:43:21.832Z,99640.44
2019-06-20T19:45:52.966Z,99643.90
2019-06-20T19:48:23.956Z,99649.03
2019-06-20T19:50:54.753Z,99651.03
2019-06-20T19:53:25.562Z,99648.89
2019-06-20T19:55:56.380Z,99658.80
2019-06-20T19:58:27.196Z,99660.26
2019-06-20T20:00:58.275Z,99665.23
2019-06-20T20:03:29.554Z,99661.44
2019-06-20T20:06:00.389Z,99664.56
2019-06-20T20:08:31.238Z,99664.89
2019-06-20T20:11:04.183Z,99664.27
2019-06-20T20:13:34.815Z,99667.53
2019-06-20T20:16:05.659Z,99668.89
2019-06-20T20:18:36.383Z,99678.44
2019-06-20T20:21:07.145Z,99685.02
2019-06-20T20:23:37.955Z,99677.80
2019-06-20T20:26:09.001Z,99682.58
2019-06-20T20:28:39.705Z,99678.47
2019-06-20T20:31:12.234Z,99684.04
2019-06-20T20:33:43.442Z,99683.05
2019-06-20T20:36:24.574Z,99685.34
2019-06-20T20:38:46.621Z,99692.58
2019-06-20T20:41:17.618Z,99685.03
2019-06-20T20:43:48.352Z,99694.91
2019-06-20T20:46:19.112Z,99690.13
2019-06-20T20:48:50.080Z,99694.72
2019-06-20T20:51:21.061Z,99691.92
2019-06-20T20:53:52.062Z,99692.44
2019-06-20T20:56:22.792Z,99700.14
2019-06-20T20:58:53.517Z,99698.19
2019-06-20T21:01:29.495Z,99698.34
2019-06-20T21:04:00.600Z,99698.67
2019-06-20T21:06:31.548Z,99704.91
2019-06-20T21:09:03.543Z,99699.50
2019-06-20T21:11:35.932Z,99704.58
2019-06-20T21:14:07.040Z,99705.73
2019-06-20T21:16:38.038Z,99708.68
2019-06-20T21:19:08.846Z,99708.52
2019-06-20T21:21:39.597Z,99710.00
2019-06-20T21:24:10.336Z,99712.30
2019-06-20T21:26:49.405Z,99714.91
2019-06-20T21:29:14.208Z,99718.87
2019-06-20T21:31:45.174Z,99718.84
2019-06-20T21:34:16.167Z,99711.92
2019-06-20T21:36:47.401Z,99713.02
2019-06-20T21:39:18.389Z,99716.09
2019-06-20T21:41:49.509Z,99723.30
2019-06-20T21:44:20.257Z,99719.34
2019-06-20T21:46:52.719Z,99725.06
2019-06-20T21:49:23.568Z,99728.68
2019-06-20T21:51:54.397Z,99735.70
2019-06-20T21:54:25.439Z,99731.11
2019-06-20T21:56:56.150Z,99731.89
2019-06-20T21:59:27.159Z,99733.03
2019-06-20T22:01:58.217Z,99735.25
2019-06-20T22:04:29.313Z,99738.65
2019-06-20T22:07:00.396Z,99746.21
2019-06-20T22:09:31.294Z,99745.07
2019-06-20T22:12:02.046Z,99749.63
2019-06-20T22:14:33.160Z,99751.53
2019-06-20T22:17:03.973Z,99755.81
2019-06-20T22:19:35.057Z,99768.77
2019-06-20T22:22:05.789Z,99764.63
2019-06-20T22:24:36.754Z,99764.62
2019-06-20T22:27:07.485Z,99770.48
2019-06-20T22:29:38.538Z,99766.86
2019-06-20T22:32:09.350Z,99771.80
2019-06-20T22:34:40.082Z,99777.01
2019-06-20T22:37:11.163Z,99774.73
2019-06-20T22:39:42.378Z,99782.91
2019-06-20T22:42:14.717Z,99781.59
2019-06-20T22:44:45.766Z,99781.16
2019-06-20T22:47:16.767Z,99775.22
2019-06-20T22:49:47.506Z,99776.05
2019-06-20T22:52:29.843Z,99777.05
2019-06-20T23:01:23.491Z,99771.02
2019-06-20T23:04:19.800Z,99778.80
2019-06-20T23:13:08.947Z,99782.70
2019-06-20T23:19:53.638Z,99785.32
2019-06-20T23:29:18.844Z,99793.23
2019-06-20T23:32:08.986Z,99794.77
2019-06-20T23:34:39.721Z,99792.36
2019-06-20T23:37:13.068Z,99789.47
2019-06-20T23:39:43.392Z,99793.14
2019-06-20T23:42:14.161Z,99788.23
2019-06-20T23:44:44.969Z,99796.63
2019-06-20T23:47:15.722Z,99793.17
2019-06-20T23:49:46.438Z,99794.66
2019-06-20T23:52:20.468Z,99790.24
2019-06-20T23:54:51.283Z,99786.62
2019-06-20T23:57:22.093Z,99781.06
2019-06-20T23:59:52.840Z,99777.54
